Historyczne dane pomiarowe

Dodano dane terminowe – wersja testowa.

Dane z okresu 1951-2019

Wersja bazy: 1.34 [2019-03-16, lista zmian], aktualizacja planowana na 2019-04-15

Dane meteo z obszaru Polski uzyskane na podstawie danych udostępnionych przez Instytut Meteorologii i Gospodarki Wodnej – Państwowy Instytut Badawczy.

 

Wybierz Datę:    

       

TemperaturaWilgotnośćWiatrCiśnienieOpadyŚniegCzas trwania zjawisk
 Stacja t tx tn tng RH VA  wxwx mslp ppp RRR   cm mm wxwxwxwxwxwxwx
1999-08-14 10.9 18.5 3.8- 84.0- 4.7 0.0---- 0.0------------
1999-08-13 13.1 17.3 9.5- 83.8- 6.3 1.0---- 0.0------------
1999-08-12 14.3 18.6 12.0- 86.3- 7.3 2.3---- 0.0------------
1999-08-11 17.8 22.8 13.4- 82.3- 4.7 1.7---- 3.3------------
1999-08-10 19.3 28.4 14.4- 80.0- 6.7 1.0---- 13.4------------
1999-08-09 18.3 29.9 10.2- 85.3- 4.3 1.0---- 7.8------------
1999-08-08 19.3 26.0 13.7- 84.3- 5.7 1.3---- 0.0------------
1999-08-07 17.9 27.0 10.0- 73.5- 5.7 1.3---- 31.3------------
1999-08-06 18.6 25.5 12.6- 77.0- 5.7 1.3---- 0.0------------
1999-08-05 14.8 24.7 5.4- 71.5- 4.3 1.0---- 0.5------------
1999-08-04 13.0 21.8 4.1- 77.0- 0.3 0.0---- 0.0------------
1999-08-03 13.3 18.6 8.0- 79.5- 6.3 0.0---- 0.0------------
1999-08-02 12.1 19.2 4.7- 83.0- 6.0 0.0---- 0.4------------
1999-08-01 13.4 19.5 9.1- 80.3- 4.0 0.0---- 1.2------------
1999-07-31 12.9 21.0 4.2- 83.3- 5.0 0.7---- 0.0------------
1999-07-30 13.4 21.6 5.0- 82.5- 4.7 0.7---- 0.0------------
1999-07-29 15.3 20.5 8.5- 81.8- 3.3 1.7---- 0.0------------
1999-07-28 17.0 21.4 13.7- 83.8- 6.0 1.7---- 0.0------------
1999-07-27 17.4 20.0 15.7- 81.0- 7.7 0.0---- 9.5------------
1999-07-26 16.6 24.2 9.3- 82.5- 7.3 0.0---- 0.0------------
1999-07-25 15.8 22.8 7.7- 82.5- 4.7 1.3---- 0.2------------
1999-07-24 13.7 17.8 9.7- 80.5- 7.7 0.0---- 0.2------------
1999-07-23 12.8 15.8 10.8- 81.0- 8.0 1.0---- 13.4------------
1999-07-22 16.4 21.4 10.7- 83.5- 7.0 1.7---- 14.9------------
1999-07-21 18.1 26.8 10.9- 84.0- 5.7 1.7---- 0.3------------
1999-07-20 17.9 26.7 8.2- 81.3- 2.0 1.0---- 0.0------------
1999-07-19 15.7 25.3 5.2- 83.8- 3.7 0.0---- 0.0------------
1999-07-18 14.9 25.3 5.7- 82.0- 4.3 0.7---- 0.0------------
1999-07-17 14.8 20.0 8.6- 81.0- 4.7 0.0---- 0.0------------
1999-07-16 15.0 19.5 10.6- 80.0- 4.0 0.0---- 0.0------------
1999-07-15 16.0 19.7 13.5- 85.0- 5.3 1.7---- 0.0------------
1999-07-14 18.3 25.0 13.2- 84.0- 5.7 2.3---- 1.1------------
1999-07-13 19.1 24.3 14.9- 83.0- 6.0 0.0---- 3.9------------
1999-07-12 18.5 24.9 13.9- 79.5- 7.0 0.3---- 2.5------------
1999-07-11 17.9 19.5 16.6- 84.5- 6.3 2.3---- 7.4------------
1999-07-10 17.5 20.6 14.2- 85.5- 7.3 3.3---- 0.0------------
1999-07-09 17.3 20.9 14.2- 86.0- 7.7 0.0---- 38.4------------
1999-07-08 17.7 22.8 15.0- 82.5- 7.0 1.3---- 10.0------------
1999-07-07 19.8 23.0 15.0- 81.8- 5.7 0.0---- 10.4------------
1999-07-06 19.9 29.5 10.7- 72.8- 1.7 3.3---- 0.0------------
1999-07-05 20.6 29.8 10.0- 74.0- 1.0 1.7---- 0.0------------
1999-07-04 19.1 30.1 8.2- 73.0- 1.7 0.0---- 0.0------------
1999-07-03 17.1 24.0 9.7- 75.0- 3.3 0.0---- 0.0------------
1999-07-02 17.0 23.7 10.5- 78.8- 5.0 0.0---- 0.2------------
1999-07-01 17.2 23.8 10.3- 81.8- 4.0 1.7---- 0.8------------
1999-06-30 17.7 24.1 11.9- 80.3- 6.3 1.7---- 0.0------------
1999-06-29 17.5 23.4 12.3- 77.5- 3.3 1.3---- 0.0------------
1999-06-28 15.3 25.6 6.8- 80.5- 6.0 0.7---- 9.0------------
1999-06-27 15.5 25.5 2.0- 82.0- 2.0 0.0---- 0.0------------
1999-06-26 13.3 22.9 1.6- 75.5- 1.3 0.3---- 0.0------------
1999-06-25 9.8 16.6 2.4- 78.5- 5.3 0.3---- 0.0------------
1999-06-24 9.9 12.1 6.6- 78.5- 7.7 1.0---- 0.0------------
1999-06-23 8.1 9.4 6.5- 87.8- 8.0 1.0---- 1.1------------
1999-06-22 9.8 14.3 7.3- 88.0- 8.0 2.0---- 5.6------------
1999-06-21 16.6 22.0 13.7- 88.5- 7.0 0.7---- 16.5------------
1999-06-20 16.2 20.9 13.2- 85.8- 7.0 1.0---- 3.4------------
1999-06-19 15.0 19.2 12.2- 86.8- 7.7 1.0---- 0.0------------
1999-06-18 15.1 17.9 12.3- 84.3- 7.7 0.0---- 10.6------------
1999-06-17 16.9 20.5 13.6- 85.8- 7.0 0.3---- 16.5------------
1999-06-16 16.5 19.6 14.2- 83.8- 7.0 1.0---- 1.0------------
250.5 ms

 

Źródłem pochodzenia danych jest Instytut Meteorologii i Gospodarki Wodnej – Państwowy Instytut Badawczy. Dane Instytutu Meteorologii i Gospodarki Wodnej – Państwowego Instytutu Badawczego zostały przetworzone.

Dane źródłowe można odnaleźć na stronie https://dane.imgw.pl